createdAt,value
2022-09-20T00:06:18.499Z,84.89
2022-09-20T00:13:20.065Z,84.61
2022-09-20T00:20:21.643Z,84.57
2022-09-20T00:27:23.313Z,84.60
2022-09-20T00:34:43.324Z,84.90
2022-09-20T00:41:44.923Z,85.23
2022-09-20T00:48:46.486Z,84.93
2022-09-20T00:55:51.101Z,85.28
2022-09-20T01:02:54.821Z,85.08
2022-09-20T01:09:56.441Z,85.20
2022-09-20T01:16:59.375Z,85.33
2022-09-20T01:24:11.067Z,85.33
2022-09-20T01:31:15.873Z,85.51
2022-09-20T01:38:27.605Z,85.82
2022-09-20T01:45:30.937Z,86.21
2022-09-20T01:52:53.791Z,86.41
2022-09-20T02:00:05.960Z,86.54
2022-09-20T02:07:22.584Z,86.58
2022-09-20T02:14:30.020Z,86.51
2022-09-20T02:21:38.286Z,87.11
2022-09-20T02:28:55.958Z,87.04
2022-09-20T02:36:32.170Z,87.27
2022-09-20T02:43:38.771Z,87.74
2022-09-20T02:50:54.976Z,87.53
2022-09-20T02:58:15.281Z,87.55
2022-09-20T03:05:27.451Z,87.80
2022-09-20T03:12:43.613Z,87.50
2022-09-20T03:20:08.613Z,88.50
2022-09-20T03:27:13.558Z,88.10
2022-09-20T03:34:41.465Z,88.12
2022-09-20T03:42:11.595Z,88.35
2022-09-20T03:49:31.938Z,89.12
2022-09-20T03:56:55.324Z,89.79
2022-09-20T04:04:19.923Z,89.41
2022-09-20T04:11:43.714Z,90.07
2022-09-20T04:19:04.161Z,90.09
2022-09-20T04:26:05.868Z,90.92
2022-09-20T04:33:15.391Z,90.36
2022-09-20T04:41:05.541Z,90.94
2022-09-20T04:48:38.119Z,90.49
2022-09-20T04:56:03.250Z,90.60
2022-09-20T05:03:22.637Z,90.19
2022-09-20T05:10:43.517Z,90.62
2022-09-20T05:18:13.919Z,90.57
2022-09-20T05:25:37.640Z,90.68
2022-09-20T05:32:45.141Z,90.52
2022-09-20T05:40:01.591Z,90.60
2022-09-20T05:47:19.181Z,90.17
2022-09-20T05:54:35.942Z,90.33
2022-09-20T06:02:01.981Z,89.61
2022-09-20T06:09:16.928Z,89.19
2022-09-20T06:16:28.104Z,88.22
2022-09-20T06:23:30.947Z,87.06
2022-09-20T06:30:37.896Z,86.83
2022-09-20T06:38:22.423Z,85.77
2022-09-20T06:45:24.024Z,85.74
2022-09-20T06:52:25.620Z,84.87
2022-09-20T06:59:27.297Z,84.60
2022-09-20T07:06:29.196Z,83.85
2022-09-20T07:13:30.766Z,82.87
2022-09-20T07:20:32.663Z,82.84
2022-09-20T07:27:35.649Z,82.65
2022-09-20T07:34:37.200Z,83.01
2022-09-20T07:41:38.747Z,80.27
2022-09-20T07:48:40.571Z,79.25
2022-09-20T07:55:42.078Z,77.26
2022-09-20T08:02:45.354Z,74.22
2022-09-20T08:09:46.951Z,72.71
2022-09-20T08:16:49.690Z,70.96
2022-09-20T08:23:51.422Z,69.01
2022-09-20T08:30:53.005Z,67.02
2022-09-20T08:37:55.905Z,64.12
2022-09-20T08:45:05.552Z,63.17
2022-09-20T08:52:10.341Z,60.90
2022-09-20T08:59:22.081Z,58.95
2022-09-20T09:06:24.690Z,57.37
2022-09-20T09:13:52.601Z,56.62
2022-09-20T09:20:54.243Z,54.32
2022-09-20T09:28:17.081Z,53.97
2022-09-20T09:35:31.469Z,51.84
2022-09-20T09:42:33.176Z,48.81
2022-09-20T09:49:35.933Z,48.83
2022-09-20T09:57:03.358Z,48.25
2022-09-20T10:04:10.963Z,46.01
2022-09-20T10:11:58.610Z,46.90
2022-09-20T10:19:28.379Z,46.80
2022-09-20T10:26:46.731Z,45.09
2022-09-20T10:34:00.053Z,45.41
2022-09-20T10:41:48.274Z,46.63
2022-09-20T10:48:57.408Z,50.24
2022-09-20T10:56:17.165Z,54.02
2022-09-20T11:03:21.612Z,56.50
2022-09-20T11:10:29.900Z,58.98
2022-09-20T11:17:37.486Z,56.56
2022-09-20T11:24:43.122Z,58.66
2022-09-20T11:31:45.523Z,61.08
2022-09-20T11:38:53.640Z,62.85
2022-09-20T11:45:57.863Z,65.08
2022-09-20T11:53:13.417Z,65.60
2022-09-20T12:00:17.649Z,64.93
2022-09-20T12:07:35.022Z,66.54
2022-09-20T12:14:36.625Z,63.42
2022-09-20T12:21:59.925Z,59.99
2022-09-20T12:29:02.521Z,52.69
2022-09-20T12:36:18.046Z,49.18
2022-09-20T12:43:19.625Z,44.99
2022-09-20T12:50:39.742Z,40.66
2022-09-20T12:57:41.362Z,39.30
2022-09-20T13:04:57.197Z,40.69
2022-09-20T13:11:58.747Z,41.85
2022-09-20T13:19:14.482Z,40.67
2022-09-20T13:26:16.131Z,38.67
2022-09-20T13:33:24.708Z,37.66
2022-09-20T13:40:36.745Z,40.67
2022-09-20T13:47:47.658Z,40.37
2022-09-20T13:54:49.303Z,38.63
2022-09-20T14:01:52.143Z,40.92
2022-09-20T14:08:53.799Z,41.60
2022-09-20T14:15:55.376Z,42.15
2022-09-20T14:22:59.121Z,41.10
2022-09-20T14:30:00.975Z,40.39
2022-09-20T14:37:33.133Z,39.75
2022-09-20T14:44:36.159Z,39.51
2022-09-20T14:51:37.845Z,37.54
2022-09-20T14:59:01.294Z,36.90
2022-09-20T15:06:03.494Z,37.48
2022-09-20T15:13:05.709Z,40.07
2022-09-20T15:20:12.861Z,40.22
2022-09-20T15:27:14.596Z,41.18
2022-09-20T15:34:16.250Z,41.85
2022-09-20T15:41:17.888Z,46.98
2022-09-20T15:48:21.247Z,50.47
2022-09-20T15:55:22.808Z,54.11
2022-09-20T16:02:24.441Z,55.74
2022-09-20T16:09:26.071Z,57.25
2022-09-20T16:16:28.822Z,59.21
2022-09-20T16:23:30.390Z,60.52
2022-09-20T16:30:31.928Z,61.85
2022-09-20T16:37:33.614Z,62.67
2022-09-20T16:44:36.122Z,63.47
2022-09-20T16:51:39.059Z,64.28
2022-09-20T16:58:41.774Z,64.69
2022-09-20T17:05:43.330Z,64.05
2022-09-20T17:12:46.647Z,64.59
2022-09-20T17:19:48.286Z,65.48
2022-09-20T17:26:50.664Z,66.45
2022-09-20T17:33:52.463Z,66.93
2022-09-20T17:41:04.426Z,68.13
2022-09-20T17:48:08.315Z,68.85
2022-09-20T17:55:10.148Z,69.65
2022-09-20T18:02:11.913Z,70.79
2022-09-20T18:09:21.053Z,71.76
2022-09-20T18:16:23.694Z,72.28
2022-09-20T18:23:25.351Z,72.56
2022-09-20T18:30:26.891Z,72.64
2022-09-20T18:37:29.021Z,72.73
2022-09-20T18:44:32.255Z,72.86
2022-09-20T18:51:39.042Z,73.62
2022-09-20T18:58:41.400Z,74.05
2022-09-20T19:05:51.793Z,74.03
2022-09-20T19:12:53.191Z,74.26
2022-09-20T19:20:01.257Z,74.91
2022-09-20T19:27:02.996Z,74.98
2022-09-20T19:34:10.262Z,75.24
2022-09-20T19:41:27.311Z,75.43
2022-09-20T19:48:35.125Z,75.98
2022-09-20T19:55:37.324Z,76.44
2022-09-20T20:02:39.200Z,76.80
2022-09-20T20:09:45.476Z,76.64
2022-09-20T20:16:53.161Z,76.93
2022-09-20T20:23:57.920Z,77.16
2022-09-20T20:31:02.003Z,77.25
2022-09-20T20:38:06.014Z,77.11
2022-09-20T20:45:08.047Z,77.61
2022-09-20T20:52:09.643Z,77.89
2022-09-20T20:59:11.232Z,78.69
2022-09-20T21:06:13.158Z,78.72
2022-09-20T21:13:15.010Z,78.66
2022-09-20T21:20:16.600Z,79.05
2022-09-20T21:27:18.263Z,79.32
2022-09-20T21:34:19.875Z,81.46
2022-09-20T21:41:25.687Z,80.60
2022-09-20T21:48:27.567Z,80.50
2022-09-20T21:55:29.174Z,81.09
2022-09-20T22:02:30.746Z,81.56
2022-09-20T22:09:32.372Z,81.98
2022-09-20T22:16:36.742Z,81.97
2022-09-20T22:23:38.394Z,82.13
2022-09-20T22:30:39.998Z,82.03
2022-09-20T22:37:41.642Z,82.34
2022-09-20T22:44:43.241Z,82.46
2022-09-20T22:51:44.867Z,82.51
2022-09-20T22:58:47.895Z,82.82
2022-09-20T23:05:49.516Z,83.14
2022-09-20T23:12:51.600Z,83.25
2022-09-20T23:19:53.171Z,83.18
2022-09-20T23:26:54.731Z,83.36
2022-09-20T23:33:57.620Z,84.10
2022-09-20T23:41:06.579Z,84.32
2022-09-20T23:48:08.172Z,83.93
2022-09-20T23:55:09.877Z,84.31
